sensor_id;sensor_type;location;lat;lon;timestamp;P1;durP1;ratioP1;P2;durP2;ratioP2
49728;SDS011;66333;49.798;10.968;2023-11-19T00:01:43;3.27;;;1.27;;
49728;SDS011;66333;49.798;10.968;2023-11-19T00:04:09;3.47;;;1.25;;
49728;SDS011;66333;49.798;10.968;2023-11-19T00:06:38;2.23;;;0.90;;
49728;SDS011;66333;49.798;10.968;2023-11-19T00:09:05;2.43;;;0.80;;
49728;SDS011;66333;49.798;10.968;2023-11-19T00:11:33;2.87;;;0.90;;
49728;SDS011;66333;49.798;10.968;2023-11-19T00:13:59;3.20;;;1.20;;
49728;SDS011;66333;49.798;10.968;2023-11-19T00:16:25;2.70;;;0.80;;
49728;SDS011;66333;49.798;10.968;2023-11-19T00:18:53;3.22;;;1.38;;
49728;SDS011;66333;49.798;10.968;2023-11-19T00:21:19;4.03;;;1.85;;
49728;SDS011;66333;49.798;10.968;2023-11-19T00:23:47;2.85;;;1.10;;
49728;SDS011;66333;49.798;10.968;2023-11-19T00:26:14;4.05;;;1.73;;
49728;SDS011;66333;49.798;10.968;2023-11-19T00:28:41;3.90;;;1.70;;
49728;SDS011;66333;49.798;10.968;2023-11-19T00:31:08;4.45;;;1.60;;
49728;SDS011;66333;49.798;10.968;2023-11-19T00:33:35;3.13;;;1.37;;
49728;SDS011;66333;49.798;10.968;2023-11-19T00:36:02;4.07;;;1.60;;
49728;SDS011;66333;49.798;10.968;2023-11-19T00:38:29;3.60;;;1.45;;
49728;SDS011;66333;49.798;10.968;2023-11-19T00:40:57;3.10;;;1.40;;
49728;SDS011;66333;49.798;10.968;2023-11-19T00:43:27;3.03;;;1.10;;
49728;SDS011;66333;49.798;10.968;2023-11-19T00:45:53;3.40;;;1.70;;
49728;SDS011;66333;49.798;10.968;2023-11-19T00:48:20;3.07;;;1.10;;
49728;SDS011;66333;49.798;10.968;2023-11-19T00:50:47;2.73;;;0.83;;
49728;SDS011;66333;49.798;10.968;2023-11-19T00:53:14;2.80;;;0.90;;
49728;SDS011;66333;49.798;10.968;2023-11-19T00:55:40;3.67;;;1.53;;
49728;SDS011;66333;49.798;10.968;2023-11-19T00:58:08;2.95;;;0.90;;
49728;SDS011;66333;49.798;10.968;2023-11-19T01:00:35;2.40;;;0.90;;
49728;SDS011;66333;49.798;10.968;2023-11-19T01:03:01;3.30;;;1.40;;
49728;SDS011;66333;49.798;10.968;2023-11-19T01:05:28;3.95;;;1.33;;
49728;SDS011;66333;49.798;10.968;2023-11-19T01:07:55;2.58;;;0.77;;
49728;SDS011;66333;49.798;10.968;2023-11-19T01:10:21;3.53;;;1.50;;
49728;SDS011;66333;49.798;10.968;2023-11-19T01:12:48;3.33;;;1.50;;
49728;SDS011;66333;49.798;10.968;2023-11-19T01:15:18;3.60;;;1.40;;
49728;SDS011;66333;49.798;10.968;2023-11-19T01:17:44;3.17;;;1.33;;
49728;SDS011;66333;49.798;10.968;2023-11-19T01:20:10;3.30;;;1.50;;
49728;SDS011;66333;49.798;10.968;2023-11-19T01:22:38;3.60;;;1.43;;
49728;SDS011;66333;49.798;10.968;2023-11-19T01:25:05;3.80;;;1.80;;
49728;SDS011;66333;49.798;10.968;2023-11-19T01:27:32;3.27;;;1.40;;
49728;SDS011;66333;49.798;10.968;2023-11-19T01:30:00;3.30;;;1.50;;
49728;SDS011;66333;49.798;10.968;2023-11-19T01:32:30;3.67;;;1.60;;
49728;SDS011;66333;49.798;10.968;2023-11-19T01:34:56;4.23;;;1.50;;
49728;SDS011;66333;49.798;10.968;2023-11-19T01:37:23;3.53;;;1.53;;
49728;SDS011;66333;49.798;10.968;2023-11-19T01:39:49;3.47;;;1.60;;
49728;SDS011;66333;49.798;10.968;2023-11-19T01:42:15;3.57;;;1.40;;
49728;SDS011;66333;49.798;10.968;2023-11-19T01:44:42;3.20;;;1.50;;
49728;SDS011;66333;49.798;10.968;2023-11-19T01:47:08;3.30;;;1.50;;
49728;SDS011;66333;49.798;10.968;2023-11-19T01:49:37;3.20;;;1.15;;
49728;SDS011;66333;49.798;10.968;2023-11-19T01:52:03;3.30;;;1.57;;
49728;SDS011;66333;49.798;10.968;2023-11-19T01:54:31;3.33;;;1.52;;
49728;SDS011;66333;49.798;10.968;2023-11-19T01:57:00;3.37;;;1.30;;
49728;SDS011;66333;49.798;10.968;2023-11-19T01:59:26;3.37;;;1.70;;
49728;SDS011;66333;49.798;10.968;2023-11-19T02:01:53;3.92;;;1.60;;
49728;SDS011;66333;49.798;10.968;2023-11-19T02:04:22;3.27;;;1.50;;
49728;SDS011;66333;49.798;10.968;2023-11-19T02:06:52;4.07;;;1.60;;
49728;SDS011;66333;49.798;10.968;2023-11-19T02:09:22;3.30;;;1.57;;
49728;SDS011;66333;49.798;10.968;2023-11-19T02:11:48;3.73;;;1.63;;
49728;SDS011;66333;49.798;10.968;2023-11-19T02:14:18;3.80;;;1.50;;
49728;SDS011;66333;49.798;10.968;2023-11-19T02:16:45;3.60;;;1.67;;
49728;SDS011;66333;49.798;10.968;2023-11-19T02:19:11;3.37;;;1.50;;
49728;SDS011;66333;49.798;10.968;2023-11-19T02:21:38;3.23;;;1.37;;
49728;SDS011;66333;49.798;10.968;2023-11-19T02:24:08;3.30;;;1.33;;
49728;SDS011;66333;49.798;10.968;2023-11-19T02:26:39;3.33;;;1.30;;
49728;SDS011;66333;49.798;10.968;2023-11-19T02:29:11;3.50;;;1.40;;
49728;SDS011;66333;49.798;10.968;2023-11-19T02:31:38;3.43;;;1.40;;
49728;SDS011;66333;49.798;10.968;2023-11-19T02:34:05;3.90;;;1.80;;
49728;SDS011;66333;49.798;10.968;2023-11-19T02:36:31;3.27;;;1.50;;
49728;SDS011;66333;49.798;10.968;2023-11-19T02:38:58;3.37;;;1.47;;
49728;SDS011;66333;49.798;10.968;2023-11-19T02:41:26;3.50;;;1.50;;
49728;SDS011;66333;49.798;10.968;2023-11-19T02:43:52;4.00;;;1.70;;
49728;SDS011;66333;49.798;10.968;2023-11-19T02:46:20;3.20;;;1.37;;
49728;SDS011;66333;49.798;10.968;2023-11-19T02:48:46;3.43;;;1.53;;
49728;SDS011;66333;49.798;10.968;2023-11-19T02:51:14;3.10;;;1.20;;
49728;SDS011;66333;49.798;10.968;2023-11-19T02:53:40;3.40;;;1.40;;
49728;SDS011;66333;49.798;10.968;2023-11-19T02:56:09;3.13;;;1.30;;
49728;SDS011;66333;49.798;10.968;2023-11-19T02:58:44;3.30;;;1.40;;
49728;SDS011;66333;49.798;10.968;2023-11-19T03:01:11;3.47;;;1.50;;
49728;SDS011;66333;49.798;10.968;2023-11-19T03:03:49;3.20;;;1.33;;
49728;SDS011;66333;49.798;10.968;2023-11-19T03:06:19;2.73;;;0.90;;
49728;SDS011;66333;49.798;10.968;2023-11-19T03:08:46;3.20;;;1.30;;
49728;SDS011;66333;49.798;10.968;2023-11-19T03:11:13;3.60;;;1.60;;
49728;SDS011;66333;49.798;10.968;2023-11-19T03:13:39;3.27;;;1.20;;
49728;SDS011;66333;49.798;10.968;2023-11-19T03:16:06;3.20;;;1.43;;
49728;SDS011;66333;49.798;10.968;2023-11-19T03:18:34;3.30;;;1.37;;
49728;SDS011;66333;49.798;10.968;2023-11-19T03:21:02;3.40;;;1.47;;
49728;SDS011;66333;49.798;10.968;2023-11-19T03:23:28;3.30;;;1.33;;
49728;SDS011;66333;49.798;10.968;2023-11-19T03:25:56;3.47;;;1.30;;
49728;SDS011;66333;49.798;10.968;2023-11-19T03:28:22;3.10;;;1.30;;
49728;SDS011;66333;49.798;10.968;2023-11-19T03:30:49;3.50;;;1.40;;
49728;SDS011;66333;49.798;10.968;2023-11-19T03:33:18;3.20;;;1.30;;
49728;SDS011;66333;49.798;10.968;2023-11-19T03:35:44;3.10;;;1.17;;
49728;SDS011;66333;49.798;10.968;2023-11-19T03:38:12;2.90;;;1.23;;
49728;SDS011;66333;49.798;10.968;2023-11-19T03:40:41;3.70;;;1.50;;
49728;SDS011;66333;49.798;10.968;2023-11-19T03:43:07;3.33;;;1.17;;
49728;SDS011;66333;49.798;10.968;2023-11-19T03:45:34;3.10;;;1.20;;
49728;SDS011;66333;49.798;10.968;2023-11-19T03:48:01;3.10;;;1.20;;
49728;SDS011;66333;49.798;10.968;2023-11-19T03:50:28;2.93;;;1.10;;
49728;SDS011;66333;49.798;10.968;2023-11-19T03:52:54;3.40;;;1.20;;
49728;SDS011;66333;49.798;10.968;2023-11-19T03:55:22;3.00;;;1.17;;
49728;SDS011;66333;49.798;10.968;2023-11-19T03:57:48;3.20;;;1.20;;
49728;SDS011;66333;49.798;10.968;2023-11-19T04:00:15;3.25;;;1.30;;
49728;SDS011;66333;49.798;10.968;2023-11-19T04:02:42;3.30;;;1.33;;
49728;SDS011;66333;49.798;10.968;2023-11-19T04:05:09;2.80;;;1.20;;
49728;SDS011;66333;49.798;10.968;2023-11-19T04:07:36;3.27;;;1.13;;
49728;SDS011;66333;49.798;10.968;2023-11-19T04:10:02;3.07;;;1.30;;
49728;SDS011;66333;49.798;10.968;2023-11-19T04:12:30;3.10;;;1.20;;
49728;SDS011;66333;49.798;10.968;2023-11-19T04:14:58;3.00;;;1.30;;
49728;SDS011;66333;49.798;10.968;2023-11-19T04:17:25;2.95;;;1.13;;
49728;SDS011;66333;49.798;10.968;2023-11-19T04:19:51;3.33;;;1.30;;
49728;SDS011;66333;49.798;10.968;2023-11-19T04:22:17;3.00;;;1.20;;
49728;SDS011;66333;49.798;10.968;2023-11-19T04:24:45;3.30;;;1.23;;
49728;SDS011;66333;49.798;10.968;2023-11-19T04:27:11;3.43;;;1.40;;
49728;SDS011;66333;49.798;10.968;2023-11-19T04:29:39;2.80;;;1.30;;
49728;SDS011;66333;49.798;10.968;2023-11-19T04:32:06;3.20;;;1.30;;
49728;SDS011;66333;49.798;10.968;2023-11-19T04:34:34;3.20;;;1.30;;
49728;SDS011;66333;49.798;10.968;2023-11-19T04:37:03;3.37;;;1.20;;
49728;SDS011;66333;49.798;10.968;2023-11-19T04:39:30;3.23;;;1.37;;
49728;SDS011;66333;49.798;10.968;2023-11-19T04:41:57;3.43;;;1.27;;
49728;SDS011;66333;49.798;10.968;2023-11-19T04:44:24;3.00;;;1.20;;
49728;SDS011;66333;49.798;10.968;2023-11-19T04:46:52;3.20;;;1.07;;
49728;SDS011;66333;49.798;10.968;2023-11-19T04:49:18;3.23;;;1.20;;
49728;SDS011;66333;49.798;10.968;2023-11-19T04:51:45;3.03;;;1.13;;
49728;SDS011;66333;49.798;10.968;2023-11-19T04:54:13;3.83;;;1.20;;
49728;SDS011;66333;49.798;10.968;2023-11-19T04:56:39;3.30;;;1.27;;
49728;SDS011;66333;49.798;10.968;2023-11-19T04:59:06;3.20;;;1.20;;
49728;SDS011;66333;49.798;10.968;2023-11-19T05:01:33;3.03;;;1.20;;
49728;SDS011;66333;49.798;10.968;2023-11-19T05:04:02;3.70;;;1.50;;
49728;SDS011;66333;49.798;10.968;2023-11-19T05:06:29;3.00;;;1.10;;
49728;SDS011;66333;49.798;10.968;2023-11-19T05:08:58;3.30;;;1.20;;
49728;SDS011;66333;49.798;10.968;2023-11-19T05:11:26;2.90;;;1.10;;
49728;SDS011;66333;49.798;10.968;2023-11-19T05:13:53;3.38;;;1.20;;
49728;SDS011;66333;49.798;10.968;2023-11-19T05:16:19;3.10;;;1.20;;
49728;SDS011;66333;49.798;10.968;2023-11-19T05:18:47;3.00;;;1.30;;
49728;SDS011;66333;49.798;10.968;2023-11-19T05:21:15;3.50;;;1.30;;
49728;SDS011;66333;49.798;10.968;2023-11-19T05:23:42;3.33;;;1.20;;
49728;SDS011;66333;49.798;10.968;2023-11-19T05:26:09;3.10;;;1.10;;
49728;SDS011;66333;49.798;10.968;2023-11-19T05:28:37;2.90;;;1.20;;
49728;SDS011;66333;49.798;10.968;2023-11-19T05:31:05;3.20;;;1.40;;
49728;SDS011;66333;49.798;10.968;2023-11-19T05:33:32;3.10;;;1.05;;
49728;SDS011;66333;49.798;10.968;2023-11-19T05:35:58;3.30;;;1.20;;
49728;SDS011;66333;49.798;10.968;2023-11-19T05:38:26;3.33;;;1.20;;
49728;SDS011;66333;49.798;10.968;2023-11-19T05:40:53;3.00;;;1.15;;
49728;SDS011;66333;49.798;10.968;2023-11-19T05:43:20;3.30;;;1.20;;
49728;SDS011;66333;49.798;10.968;2023-11-19T05:45:47;2.90;;;1.00;;
49728;SDS011;66333;49.798;10.968;2023-11-19T05:48:13;3.20;;;1.33;;
49728;SDS011;66333;49.798;10.968;2023-11-19T05:50:40;3.27;;;1.00;;
49728;SDS011;66333;49.798;10.968;2023-11-19T05:53:07;3.00;;;1.10;;
49728;SDS011;66333;49.798;10.968;2023-11-19T05:55:36;3.13;;;1.20;;
49728;SDS011;66333;49.798;10.968;2023-11-19T06:00:37;3.17;;;1.30;;
49728;SDS011;66333;49.798;10.968;2023-11-19T06:03:03;3.00;;;1.10;;
49728;SDS011;66333;49.798;10.968;2023-11-19T06:05:30;3.03;;;1.10;;
49728;SDS011;66333;49.798;10.968;2023-11-19T06:07:56;3.20;;;1.20;;
49728;SDS011;66333;49.798;10.968;2023-11-19T06:10:24;3.38;;;1.10;;
49728;SDS011;66333;49.798;10.968;2023-11-19T06:12:57;2.90;;;1.10;;
49728;SDS011;66333;49.798;10.968;2023-11-19T06:15:24;3.13;;;1.20;;
49728;SDS011;66333;49.798;10.968;2023-11-19T06:17:51;3.10;;;1.20;;
49728;SDS011;66333;49.798;10.968;2023-11-19T06:20:18;3.47;;;1.40;;
49728;SDS011;66333;49.798;10.968;2023-11-19T06:22:46;3.03;;;1.10;;
49728;SDS011;66333;49.798;10.968;2023-11-19T06:25:14;2.80;;;1.00;;
49728;SDS011;66333;49.798;10.968;2023-11-19T06:27:41;3.22;;;1.20;;
49728;SDS011;66333;49.798;10.968;2023-11-19T06:30:11;3.07;;;1.00;;
49728;SDS011;66333;49.798;10.968;2023-11-19T06:32:38;3.17;;;1.20;;
49728;SDS011;66333;49.798;10.968;2023-11-19T06:35:04;2.90;;;1.00;;
49728;SDS011;66333;49.798;10.968;2023-11-19T06:37:33;3.33;;;1.27;;
49728;SDS011;66333;49.798;10.968;2023-11-19T06:39:59;3.93;;;1.53;;
49728;SDS011;66333;49.798;10.968;2023-11-19T06:42:26;3.20;;;1.20;;
49728;SDS011;66333;49.798;10.968;2023-11-19T06:44:52;3.20;;;1.30;;
49728;SDS011;66333;49.798;10.968;2023-11-19T06:47:20;3.00;;;1.20;;
49728;SDS011;66333;49.798;10.968;2023-11-19T06:49:47;3.00;;;0.90;;
49728;SDS011;66333;49.798;10.968;2023-11-19T06:52:13;2.93;;;1.10;;
49728;SDS011;66333;49.798;10.968;2023-11-19T06:54:43;3.00;;;1.10;;
49728;SDS011;66333;49.798;10.968;2023-11-19T06:57:10;2.80;;;0.90;;
49728;SDS011;66333;49.798;10.968;2023-11-19T06:59:37;3.30;;;1.27;;
49728;SDS011;66333;49.798;10.968;2023-11-19T07:02:04;3.20;;;1.30;;
49728;SDS011;66333;49.798;10.968;2023-11-19T07:04:32;3.70;;;1.30;;
49728;SDS011;66333;49.798;10.968;2023-11-19T07:06:59;2.80;;;1.00;;
49728;SDS011;66333;49.798;10.968;2023-11-19T07:09:25;3.20;;;1.10;;
49728;SDS011;66333;49.798;10.968;2023-11-19T07:11:52;2.83;;;1.10;;
49728;SDS011;66333;49.798;10.968;2023-11-19T07:14:19;3.30;;;1.30;;
49728;SDS011;66333;49.798;10.968;2023-11-19T07:16:46;3.17;;;1.13;;
49728;SDS011;66333;49.798;10.968;2023-11-19T07:19:12;2.90;;;1.10;;
49728;SDS011;66333;49.798;10.968;2023-11-19T07:21:42;3.87;;;1.30;;
49728;SDS011;66333;49.798;10.968;2023-11-19T07:24:09;3.30;;;1.07;;
49728;SDS011;66333;49.798;10.968;2023-11-19T07:26:40;2.90;;;1.35;;
49728;SDS011;66333;49.798;10.968;2023-11-19T07:29:08;3.00;;;1.10;;
49728;SDS011;66333;49.798;10.968;2023-11-19T07:31:34;3.20;;;1.13;;
49728;SDS011;66333;49.798;10.968;2023-11-19T07:34:02;2.92;;;1.00;;
49728;SDS011;66333;49.798;10.968;2023-11-19T07:36:28;3.07;;;1.20;;
49728;SDS011;66333;49.798;10.968;2023-11-19T07:38:57;3.20;;;1.20;;
49728;SDS011;66333;49.798;10.968;2023-11-19T07:41:23;3.00;;;1.00;;
49728;SDS011;66333;49.798;10.968;2023-11-19T07:43:51;3.00;;;1.10;;
49728;SDS011;66333;49.798;10.968;2023-11-19T07:46:18;2.83;;;1.10;;
49728;SDS011;66333;49.798;10.968;2023-11-19T07:48:44;2.97;;;1.07;;
49728;SDS011;66333;49.798;10.968;2023-11-19T07:51:12;3.23;;;1.10;;
49728;SDS011;66333;49.798;10.968;2023-11-19T07:53:41;3.00;;;1.00;;
49728;SDS011;66333;49.798;10.968;2023-11-19T07:56:10;2.73;;;0.90;;
49728;SDS011;66333;49.798;10.968;2023-11-19T07:58:37;2.85;;;0.90;;
49728;SDS011;66333;49.798;10.968;2023-11-19T08:01:03;3.00;;;1.00;;
49728;SDS011;66333;49.798;10.968;2023-11-19T08:03:30;3.03;;;1.20;;
49728;SDS011;66333;49.798;10.968;2023-11-19T08:05:59;3.10;;;1.10;;
49728;SDS011;66333;49.798;10.968;2023-11-19T08:08:26;3.40;;;1.40;;
49728;SDS011;66333;49.798;10.968;2023-11-19T08:10:54;3.03;;;1.10;;
49728;SDS011;66333;49.798;10.968;2023-11-19T08:13:22;3.77;;;1.17;;
49728;SDS011;66333;49.798;10.968;2023-11-19T08:15:49;2.80;;;1.00;;
49728;SDS011;66333;49.798;10.968;2023-11-19T08:18:16;2.90;;;1.00;;
49728;SDS011;66333;49.798;10.968;2023-11-19T08:20:44;3.57;;;1.20;;
49728;SDS011;66333;49.798;10.968;2023-11-19T08:23:10;3.00;;;1.20;;
49728;SDS011;66333;49.798;10.968;2023-11-19T08:25:38;2.90;;;1.03;;
49728;SDS011;66333;49.798;10.968;2023-11-19T08:28:04;3.45;;;0.90;;
49728;SDS011;66333;49.798;10.968;2023-11-19T08:30:32;2.80;;;1.00;;
49728;SDS011;66333;49.798;10.968;2023-11-19T08:32:58;3.13;;;1.20;;
49728;SDS011;66333;49.798;10.968;2023-11-19T08:35:28;3.42;;;1.10;;
49728;SDS011;66333;49.798;10.968;2023-11-19T08:37:55;2.88;;;1.00;;
49728;SDS011;66333;49.798;10.968;2023-11-19T08:40:22;3.07;;;1.13;;
49728;SDS011;66333;49.798;10.968;2023-11-19T08:42:48;3.37;;;1.07;;
49728;SDS011;66333;49.798;10.968;2023-11-19T08:45:15;2.70;;;1.03;;
49728;SDS011;66333;49.798;10.968;2023-11-19T08:47:43;3.53;;;1.00;;
49728;SDS011;66333;49.798;10.968;2023-11-19T08:50:10;2.90;;;0.97;;
49728;SDS011;66333;49.798;10.968;2023-11-19T08:52:37;2.60;;;0.90;;
49728;SDS011;66333;49.798;10.968;2023-11-19T08:55:04;3.00;;;0.90;;
49728;SDS011;66333;49.798;10.968;2023-11-19T08:57:31;3.00;;;1.00;;
49728;SDS011;66333;49.798;10.968;2023-11-19T08:59:57;2.90;;;1.10;;
49728;SDS011;66333;49.798;10.968;2023-11-19T09:02:24;2.80;;;1.10;;
49728;SDS011;66333;49.798;10.968;2023-11-19T09:04:52;2.70;;;0.90;;
49728;SDS011;66333;49.798;10.968;2023-11-19T09:07:18;2.90;;;1.10;;
49728;SDS011;66333;49.798;10.968;2023-11-19T09:09:45;2.67;;;0.87;;
49728;SDS011;66333;49.798;10.968;2023-11-19T09:12:11;3.10;;;1.13;;
49728;SDS011;66333;49.798;10.968;2023-11-19T09:14:38;2.70;;;1.13;;
49728;SDS011;66333;49.798;10.968;2023-11-19T09:17:05;3.38;;;1.20;;
49728;SDS011;66333;49.798;10.968;2023-11-19T09:19:32;2.83;;;1.10;;
49728;SDS011;66333;49.798;10.968;2023-11-19T09:21:59;2.97;;;1.00;;
49728;SDS011;66333;49.798;10.968;2023-11-19T09:24:27;3.20;;;1.00;;
49728;SDS011;66333;49.798;10.968;2023-11-19T09:26:58;2.75;;;1.02;;
49728;SDS011;66333;49.798;10.968;2023-11-19T09:29:25;2.92;;;0.90;;
49728;SDS011;66333;49.798;10.968;2023-11-19T09:31:52;3.10;;;1.00;;
49728;SDS011;66333;49.798;10.968;2023-11-19T09:34:19;3.00;;;1.10;;
49728;SDS011;66333;49.798;10.968;2023-11-19T09:36:47;3.40;;;1.20;;
49728;SDS011;66333;49.798;10.968;2023-11-19T09:39:15;4.00;;;1.23;;
49728;SDS011;66333;49.798;10.968;2023-11-19T09:41:43;3.10;;;1.10;;
49728;SDS011;66333;49.798;10.968;2023-11-19T09:44:10;2.97;;;1.08;;
49728;SDS011;66333;49.798;10.968;2023-11-19T09:46:37;3.13;;;0.97;;
49728;SDS011;66333;49.798;10.968;2023-11-19T09:49:04;3.20;;;1.05;;
49728;SDS011;66333;49.798;10.968;2023-11-19T09:51:34;3.58;;;1.40;;
49728;SDS011;66333;49.798;10.968;2023-11-19T09:54:01;3.53;;;1.20;;
49728;SDS011;66333;49.798;10.968;2023-11-19T09:56:29;3.00;;;1.13;;
49728;SDS011;66333;49.798;10.968;2023-11-19T09:58:56;2.97;;;1.02;;
49728;SDS011;66333;49.798;10.968;2023-11-19T10:01:22;3.25;;;1.00;;
49728;SDS011;66333;49.798;10.968;2023-11-19T10:03:49;3.30;;;1.00;;
49728;SDS011;66333;49.798;10.968;2023-11-19T10:06:21;2.92;;;1.17;;
49728;SDS011;66333;49.798;10.968;2023-11-19T10:08:51;3.10;;;1.10;;
49728;SDS011;66333;49.798;10.968;2023-11-19T10:11:18;3.13;;;1.00;;
49728;SDS011;66333;49.798;10.968;2023-11-19T10:13:46;3.63;;;1.05;;
49728;SDS011;66333;49.798;10.968;2023-11-19T10:16:13;3.17;;;1.20;;
49728;SDS011;66333;49.798;10.968;2023-11-19T10:18:42;3.60;;;1.00;;
49728;SDS011;66333;49.798;10.968;2023-11-19T10:21:12;3.22;;;1.20;;
49728;SDS011;66333;49.798;10.968;2023-11-19T10:23:47;3.00;;;0.95;;
49728;SDS011;66333;49.798;10.968;2023-11-19T10:26:15;3.70;;;1.10;;
49728;SDS011;66333;49.798;10.968;2023-11-19T10:28:42;2.85;;;0.90;;
49728;SDS011;66333;49.798;10.968;2023-11-19T10:31:12;2.80;;;1.00;;
49728;SDS011;66333;49.798;10.968;2023-11-19T10:33:39;2.80;;;0.93;;
49728;SDS011;66333;49.798;10.968;2023-11-19T10:36:05;3.38;;;1.02;;
49728;SDS011;66333;49.798;10.968;2023-11-19T10:38:32;3.22;;;1.10;;
49728;SDS011;66333;49.798;10.968;2023-11-19T10:40:59;3.10;;;1.05;;
49728;SDS011;66333;49.798;10.968;2023-11-19T10:43:26;2.88;;;1.00;;
49728;SDS011;66333;49.798;10.968;2023-11-19T10:45:53;3.20;;;1.17;;
49728;SDS011;66333;49.798;10.968;2023-11-19T10:48:23;3.70;;;1.20;;
49728;SDS011;66333;49.798;10.968;2023-11-19T10:50:53;3.22;;;1.00;;
49728;SDS011;66333;49.798;10.968;2023-11-19T10:53:20;3.00;;;1.00;;
49728;SDS011;66333;49.798;10.968;2023-11-19T10:55:51;3.53;;;1.20;;
49728;SDS011;66333;49.798;10.968;2023-11-19T10:58:20;3.17;;;1.15;;
49728;SDS011;66333;49.798;10.968;2023-11-19T11:00:47;2.90;;;0.90;;
49728;SDS011;66333;49.798;10.968;2023-11-19T11:03:21;3.47;;;1.08;;
49728;SDS011;66333;49.798;10.968;2023-11-19T11:05:52;3.40;;;1.13;;
49728;SDS011;66333;49.798;10.968;2023-11-19T11:08:20;3.05;;;1.10;;
49728;SDS011;66333;49.798;10.968;2023-11-19T11:10:49;2.60;;;1.00;;
49728;SDS011;66333;49.798;10.968;2023-11-19T11:13:19;3.08;;;1.10;;
49728;SDS011;66333;49.798;10.968;2023-11-19T11:15:45;3.13;;;1.00;;
49728;SDS011;66333;49.798;10.968;2023-11-19T11:18:12;3.05;;;1.08;;
49728;SDS011;66333;49.798;10.968;2023-11-19T11:20:41;3.00;;;1.00;;
49728;SDS011;66333;49.798;10.968;2023-11-19T11:23:27;3.22;;;1.10;;
49728;SDS011;66333;49.798;10.968;2023-11-19T11:26:06;2.65;;;1.00;;
49728;SDS011;66333;49.798;10.968;2023-11-19T11:28:48;3.95;;;1.13;;
49728;SDS011;66333;49.798;10.968;2023-11-19T11:31:24;2.70;;;0.93;;
49728;SDS011;66333;49.798;10.968;2023-11-19T11:34:07;3.03;;;1.00;;
49728;SDS011;66333;49.798;10.968;2023-11-19T11:36:49;3.30;;;1.00;;
49728;SDS011;66333;49.798;10.968;2023-11-19T11:39:24;3.08;;;0.98;;
49728;SDS011;66333;49.798;10.968;2023-11-19T11:44:59;3.20;;;0.90;;
49728;SDS011;66333;49.798;10.968;2023-11-19T11:47:27;2.78;;;1.02;;
49728;SDS011;66333;49.798;10.968;2023-11-19T11:50:49;3.95;;;1.10;;
49728;SDS011;66333;49.798;10.968;2023-11-19T11:53:22;2.95;;;1.10;;
49728;SDS011;66333;49.798;10.968;2023-11-19T11:55:52;3.72;;;1.10;;
49728;SDS011;66333;49.798;10.968;2023-11-19T11:58:25;3.10;;;1.00;;
49728;SDS011;66333;49.798;10.968;2023-11-19T12:00:52;3.10;;;1.10;;
49728;SDS011;66333;49.798;10.968;2023-11-19T12:03:20;4.03;;;1.00;;
49728;SDS011;66333;49.798;10.968;2023-11-19T12:05:48;3.00;;;1.10;;
49728;SDS011;66333;49.798;10.968;2023-11-19T12:08:15;3.00;;;1.05;;
49728;SDS011;66333;49.798;10.968;2023-11-19T12:10:47;3.15;;;0.93;;
49728;SDS011;66333;49.798;10.968;2023-11-19T12:13:15;3.33;;;1.00;;
49728;SDS011;66333;49.798;10.968;2023-11-19T12:18:36;2.90;;;1.00;;
49728;SDS011;66333;49.798;10.968;2023-11-19T12:21:05;3.15;;;1.00;;
49728;SDS011;66333;49.798;10.968;2023-11-19T12:23:34;4.95;;;1.20;;
49728;SDS011;66333;49.798;10.968;2023-11-19T12:26:02;3.13;;;1.10;;
49728;SDS011;66333;49.798;10.968;2023-11-19T12:28:29;3.50;;;1.00;;
49728;SDS011;66333;49.798;10.968;2023-11-19T12:31:07;3.13;;;1.10;;
49728;SDS011;66333;49.798;10.968;2023-11-19T12:33:35;2.90;;;0.98;;
49728;SDS011;66333;49.798;10.968;2023-11-19T12:36:01;3.30;;;1.05;;
49728;SDS011;66333;49.798;10.968;2023-11-19T12:38:30;2.65;;;0.90;;
49728;SDS011;66333;49.798;10.968;2023-11-19T12:41:05;3.03;;;1.00;;
49728;SDS011;66333;49.798;10.968;2023-11-19T12:43:33;3.55;;;1.00;;
49728;SDS011;66333;49.798;10.968;2023-11-19T12:46:01;2.95;;;1.00;;
49728;SDS011;66333;49.798;10.968;2023-11-19T12:48:30;3.63;;;1.20;;
49728;SDS011;66333;49.798;10.968;2023-11-19T12:50:57;3.58;;;1.05;;
49728;SDS011;66333;49.798;10.968;2023-11-19T12:53:25;3.90;;;1.20;;
49728;SDS011;66333;49.798;10.968;2023-11-19T12:55:52;3.90;;;1.23;;
49728;SDS011;66333;49.798;10.968;2023-11-19T12:58:33;3.38;;;0.90;;
49728;SDS011;66333;49.798;10.968;2023-11-19T13:01:03;3.33;;;0.93;;
49728;SDS011;66333;49.798;10.968;2023-11-19T13:03:32;3.13;;;1.00;;
49728;SDS011;66333;49.798;10.968;2023-11-19T13:06:03;3.25;;;1.10;;
49728;SDS011;66333;49.798;10.968;2023-11-19T13:08:35;2.83;;;1.10;;
49728;SDS011;66333;49.798;10.968;2023-11-19T13:11:04;2.85;;;0.95;;
49728;SDS011;66333;49.798;10.968;2023-11-19T13:13:32;2.90;;;0.90;;
49728;SDS011;66333;49.798;10.968;2023-11-19T13:16:03;3.58;;;1.20;;
49728;SDS011;66333;49.798;10.968;2023-11-19T13:18:31;5.63;;;1.10;;
49728;SDS011;66333;49.798;10.968;2023-11-19T13:20:57;4.05;;;1.10;;
49728;SDS011;66333;49.798;10.968;2023-11-19T13:23:23;39.75;;;3.72;;
49728;SDS011;66333;49.798;10.968;2023-11-19T13:25:50;7.22;;;1.55;;
49728;SDS011;66333;49.798;10.968;2023-11-19T13:28:17;22.20;;;3.72;;
49728;SDS011;66333;49.798;10.968;2023-11-19T13:30:45;11.45;;;2.15;;
49728;SDS011;66333;49.798;10.968;2023-11-19T13:33:13;9.48;;;1.73;;
49728;SDS011;66333;49.798;10.968;2023-11-19T13:35:39;4.43;;;1.63;;
49728;SDS011;66333;49.798;10.968;2023-11-19T13:38:06;9.77;;;1.52;;
49728;SDS011;66333;49.798;10.968;2023-11-19T13:40:33;11.60;;;2.53;;
49728;SDS011;66333;49.798;10.968;2023-11-19T13:43:00;4.40;;;1.55;;
49728;SDS011;66333;49.798;10.968;2023-11-19T13:45:27;8.88;;;2.38;;
49728;SDS011;66333;49.798;10.968;2023-11-19T13:47:55;12.27;;;2.40;;
49728;SDS011;66333;49.798;10.968;2023-11-19T13:50:22;8.65;;;1.95;;
49728;SDS011;66333;49.798;10.968;2023-11-19T13:52:49;6.40;;;1.58;;
49728;SDS011;66333;49.798;10.968;2023-11-19T13:55:18;8.68;;;2.22;;
49728;SDS011;66333;49.798;10.968;2023-11-19T13:57:44;6.82;;;2.13;;
49728;SDS011;66333;49.798;10.968;2023-11-19T14:00:12;7.28;;;1.70;;
49728;SDS011;66333;49.798;10.968;2023-11-19T14:02:41;10.02;;;2.15;;
49728;SDS011;66333;49.798;10.968;2023-11-19T14:05:09;14.13;;;2.70;;
49728;SDS011;66333;49.798;10.968;2023-11-19T14:07:37;8.07;;;2.28;;
49728;SDS011;66333;49.798;10.968;2023-11-19T14:10:04;9.80;;;2.08;;
49728;SDS011;66333;49.798;10.968;2023-11-19T14:12:34;6.28;;;1.92;;
49728;SDS011;66333;49.798;10.968;2023-11-19T14:15:01;8.48;;;2.15;;
49728;SDS011;66333;49.798;10.968;2023-11-19T14:17:30;7.18;;;1.73;;
49728;SDS011;66333;49.798;10.968;2023-11-19T14:19:57;9.35;;;2.03;;
49728;SDS011;66333;49.798;10.968;2023-11-19T14:22:28;5.15;;;2.00;;
49728;SDS011;66333;49.798;10.968;2023-11-19T14:24:55;6.82;;;1.60;;
49728;SDS011;66333;49.798;10.968;2023-11-19T14:27:24;5.18;;;1.98;;
49728;SDS011;66333;49.798;10.968;2023-11-19T14:29:50;4.78;;;1.60;;
49728;SDS011;66333;49.798;10.968;2023-11-19T14:32:17;5.85;;;1.77;;
49728;SDS011;66333;49.798;10.968;2023-11-19T14:34:45;5.43;;;1.90;;
49728;SDS011;66333;49.798;10.968;2023-11-19T14:37:11;5.25;;;1.90;;
49728;SDS011;66333;49.798;10.968;2023-11-19T14:39:39;6.30;;;1.88;;
49728;SDS011;66333;49.798;10.968;2023-11-19T14:42:07;6.85;;;1.77;;
49728;SDS011;66333;49.798;10.968;2023-11-19T14:44:34;7.35;;;1.88;;
49728;SDS011;66333;49.798;10.968;2023-11-19T14:47:00;6.15;;;2.10;;